createdAt,value
2018-03-19T00:00:26.952Z,62.53
2018-03-19T00:01:26.936Z,62.15
2018-03-19T00:02:26.896Z,61.68
2018-03-19T00:03:27.096Z,61.58
2018-03-19T00:04:26.861Z,62.25
2018-03-19T00:05:26.835Z,62.53
2018-03-19T00:06:26.855Z,62.06
2018-03-19T00:07:26.796Z,61.77
2018-03-19T00:08:26.778Z,61.87
2018-03-19T00:09:26.777Z,60.93
2018-03-19T00:10:26.740Z,61.40
2018-03-19T00:11:26.720Z,60.55
2018-03-19T00:12:26.715Z,60.27
2018-03-19T00:13:26.682Z,61.30
2018-03-19T00:14:26.685Z,61.68
2018-03-19T00:15:26.643Z,61.77
2018-03-19T00:16:26.624Z,61.11
2018-03-19T00:17:26.605Z,61.40
2018-03-19T00:18:26.586Z,61.77
2018-03-19T00:19:26.567Z,61.77
2018-03-19T00:20:26.547Z,62.62
2018-03-19T00:21:26.529Z,62.44
2018-03-19T00:22:26.510Z,62.15
2018-03-19T00:23:26.489Z,61.68
2018-03-19T00:24:26.497Z,61.87
2018-03-19T00:25:26.468Z,60.64
2018-03-19T00:26:26.656Z,59.70
2018-03-19T00:27:26.430Z,59.51
2018-03-19T00:28:26.394Z,60.36
2018-03-19T00:29:26.419Z,60.64
2018-03-19T00:30:26.356Z,61.68
2018-03-19T00:31:26.338Z,61.77
2018-03-19T00:32:26.347Z,61.77
2018-03-19T00:33:26.298Z,62.06
2018-03-19T00:34:26.280Z,61.87
2018-03-19T00:35:26.275Z,61.77
2018-03-19T00:36:26.271Z,61.87
2018-03-19T00:37:26.230Z,61.30
2018-03-19T00:38:26.254Z,61.87
2018-03-19T00:39:26.197Z,62.44
2018-03-19T00:40:26.165Z,63.00
2018-03-19T00:41:26.188Z,62.53
2018-03-19T00:42:26.144Z,62.81
2018-03-19T00:43:26.112Z,63.38
2018-03-19T00:44:26.112Z,62.25
2018-03-19T00:45:26.069Z,62.15
2018-03-19T00:46:26.054Z,61.68
2018-03-19T00:47:26.038Z,62.15
2018-03-19T00:48:26.012Z,62.06
2018-03-19T00:49:25.993Z,62.15
2018-03-19T00:50:25.973Z,62.34
2018-03-19T00:51:25.954Z,62.25
2018-03-19T00:52:25.935Z,62.44
2018-03-19T00:53:25.915Z,63.19
2018-03-19T00:54:25.898Z,64.04
2018-03-19T00:55:25.877Z,62.72
2018-03-19T00:56:25.862Z,62.06
2018-03-19T00:57:25.841Z,62.44
2018-03-19T00:58:25.820Z,62.25
2018-03-19T00:59:25.800Z,62.72
2018-03-19T01:00:25.801Z,63.57
2018-03-19T01:01:25.766Z,63.10
2018-03-19T01:02:25.776Z,62.62
2018-03-19T01:03:25.733Z,63.19
2018-03-19T01:04:25.704Z,63.19
2018-03-19T01:05:25.700Z,63.29
2018-03-19T01:06:25.667Z,64.14
2018-03-19T01:07:25.647Z,63.85
2018-03-19T01:08:25.628Z,63.57
2018-03-19T01:09:25.611Z,62.25
2018-03-19T01:10:25.590Z,62.62
2018-03-19T01:11:25.570Z,63.38
2018-03-19T01:12:25.565Z,63.95
2018-03-19T01:13:25.535Z,64.32
2018-03-19T01:14:25.532Z,64.70
2018-03-19T01:15:25.494Z,63.67
2018-03-19T01:16:25.698Z,63.38
2018-03-19T01:17:25.458Z,63.95
2018-03-19T01:18:25.437Z,63.95
2018-03-19T01:19:25.488Z,63.48
2018-03-19T01:20:25.399Z,63.57
2018-03-19T01:21:25.380Z,63.76
2018-03-19T01:22:25.370Z,63.10
2018-03-19T01:23:25.342Z,62.62
2018-03-19T01:24:25.322Z,62.72
2018-03-19T01:25:25.304Z,63.10
2018-03-19T01:26:25.286Z,62.15
2018-03-19T01:27:25.266Z,63.29
2018-03-19T01:28:25.247Z,63.10
2018-03-19T01:29:25.228Z,63.00
2018-03-19T01:30:25.209Z,63.29
2018-03-19T01:31:25.189Z,62.62
2018-03-19T01:32:25.170Z,62.72
2018-03-19T01:33:25.153Z,61.58
2018-03-19T01:34:25.133Z,62.15
2018-03-19T01:35:25.135Z,62.06
2018-03-19T01:36:25.101Z,62.62
2018-03-19T01:37:25.110Z,63.19
2018-03-19T01:38:25.069Z,63.00
2018-03-19T01:39:25.036Z,63.19
2018-03-19T01:40:25.038Z,63.19
2018-03-19T01:41:25.002Z,63.10
2018-03-19T01:42:24.978Z,63.19
2018-03-19T01:43:24.961Z,63.76
2018-03-19T01:44:24.940Z,63.38
2018-03-19T01:45:24.920Z,64.32
2018-03-19T01:46:24.902Z,63.85
2018-03-19T01:47:24.881Z,64.32
2018-03-19T01:48:24.870Z,63.00
2018-03-19T01:49:24.881Z,63.00
2018-03-19T01:50:24.839Z,62.62
2018-03-19T01:51:24.804Z,62.72
2018-03-19T01:52:24.802Z,62.44
2018-03-19T01:53:24.767Z,62.44
2018-03-19T01:54:24.745Z,62.81
2018-03-19T01:55:24.730Z,62.81
2018-03-19T01:56:24.706Z,63.16
2018-03-19T01:57:24.686Z,63.92
2018-03-19T01:58:24.667Z,64.29
2018-03-19T01:59:24.646Z,64.01
2018-03-19T02:00:24.628Z,64.95
2018-03-19T02:01:24.609Z,65.05
2018-03-19T02:02:24.588Z,65.14
2018-03-19T02:03:24.567Z,64.67
2018-03-19T02:04:24.548Z,65.05
2018-03-19T02:05:24.530Z,64.86
2018-03-19T02:06:24.509Z,65.14
2018-03-19T02:07:24.488Z,64.95
2018-03-19T02:08:24.468Z,64.67
2018-03-19T02:09:24.448Z,65.71
2018-03-19T02:10:24.429Z,65.52
2018-03-19T02:11:24.415Z,65.23
2018-03-19T02:12:24.389Z,65.05
2018-03-19T02:13:24.374Z,65.99
2018-03-19T02:14:24.349Z,66.47
2018-03-19T02:15:24.355Z,66.28
2018-03-19T02:16:24.323Z,66.47
2018-03-19T02:17:24.514Z,66.75
2018-03-19T02:18:24.288Z,66.84
2018-03-19T02:19:24.251Z,68.07
2018-03-19T02:20:24.447Z,67.88
2018-03-19T02:21:24.214Z,68.35
2018-03-19T02:22:24.190Z,68.54
2018-03-19T02:23:24.206Z,68.16
2018-03-19T02:24:24.150Z,68.63
2018-03-19T02:25:24.131Z,68.44
2018-03-19T02:26:24.136Z,68.35
2018-03-19T02:27:24.091Z,67.88
2018-03-19T02:28:24.088Z,67.88
2018-03-19T02:29:24.055Z,67.88
2018-03-19T02:30:24.056Z,67.88
2018-03-19T02:31:24.070Z,67.13
2018-03-19T02:32:24.046Z,67.69
2018-03-19T02:33:23.982Z,68.35
2018-03-19T02:34:23.954Z,67.60
2018-03-19T02:35:23.972Z,66.94
2018-03-19T02:36:23.915Z,66.56
2018-03-19T02:37:23.896Z,67.13
2018-03-19T02:38:23.896Z,67.03
2018-03-19T02:39:23.858Z,67.32
2018-03-19T02:40:23.838Z,67.88
2018-03-19T02:41:23.827Z,67.03
2018-03-19T02:42:23.798Z,67.97
2018-03-19T02:43:23.784Z,67.13
2018-03-19T02:44:23.760Z,66.56
2018-03-19T02:45:23.739Z,66.56
2018-03-19T02:46:23.720Z,65.99
2018-03-19T02:47:23.699Z,66.28
2018-03-19T02:48:23.680Z,66.09
2018-03-19T02:49:23.665Z,65.90
2018-03-19T02:50:23.641Z,65.52
2018-03-19T02:51:23.620Z,66.75
2018-03-19T02:52:23.601Z,67.03
2018-03-19T02:53:23.589Z,66.75
2018-03-19T02:54:23.584Z,66.65
2018-03-19T02:55:23.565Z,66.37
2018-03-19T02:56:23.555Z,66.47
2018-03-19T02:57:23.520Z,66.75
2018-03-19T02:58:23.483Z,66.28
2018-03-19T02:59:23.488Z,66.28
2018-03-19T03:00:23.446Z,65.33
2018-03-19T03:01:23.425Z,65.05
2018-03-19T03:02:23.413Z,65.33
2018-03-19T03:03:23.385Z,65.71
2018-03-19T03:04:23.364Z,65.61
2018-03-19T03:05:23.345Z,66.28
2018-03-19T03:06:23.326Z,66.37
2018-03-19T03:07:23.309Z,66.37
2018-03-19T03:08:23.303Z,66.28
2018-03-19T03:09:23.289Z,66.47
2018-03-19T03:10:23.247Z,66.18
2018-03-19T03:11:23.251Z,66.56
2018-03-19T03:12:23.219Z,65.80
2018-03-19T03:13:23.188Z,65.52
2018-03-19T03:14:23.207Z,65.42
2018-03-19T03:15:23.148Z,66.37
2018-03-19T03:16:23.129Z,66.75
2018-03-19T03:17:23.139Z,66.65
2018-03-19T03:18:23.091Z,66.47
2018-03-19T03:19:23.071Z,67.32
2018-03-19T03:20:23.059Z,66.94
2018-03-19T03:21:23.032Z,66.94
2018-03-19T03:22:23.013Z,66.75
2018-03-19T03:23:22.995Z,66.37
2018-03-19T03:24:22.975Z,66.75
2018-03-19T03:25:22.954Z,66.41
2018-03-19T03:26:22.935Z,66.84
2018-03-19T03:27:22.916Z,66.50
2018-03-19T03:28:22.898Z,66.84
2018-03-19T03:29:22.878Z,66.65
2018-03-19T03:30:22.859Z,65.90
2018-03-19T03:31:22.840Z,65.42
2018-03-19T03:32:22.820Z,65.05
2018-03-19T03:33:22.821Z,65.23
2018-03-19T03:34:22.788Z,65.33
2018-03-19T03:35:22.803Z,65.61
2018-03-19T03:36:22.754Z,65.42
2018-03-19T03:37:22.725Z,64.95
2018-03-19T03:38:22.722Z,65.52
2018-03-19T03:39:22.685Z,65.42
2018-03-19T03:40:22.665Z,65.52
2018-03-19T03:41:22.649Z,65.23
2018-03-19T03:42:22.628Z,65.80
2018-03-19T03:43:22.615Z,64.95
2018-03-19T03:44:22.587Z,65.14
2018-03-19T03:45:22.567Z,64.39
2018-03-19T03:46:22.556Z,64.29
2018-03-19T03:47:22.626Z,64.67
2018-03-19T03:48:22.520Z,64.67
2018-03-19T03:49:22.491Z,64.58
2018-03-19T03:50:22.489Z,64.76
2018-03-19T03:51:22.449Z,64.76
2018-03-19T03:52:22.449Z,64.86
2018-03-19T03:53:22.418Z,65.71
2018-03-19T03:54:22.391Z,66.18
2018-03-19T03:55:22.371Z,65.52
2018-03-19T03:56:22.351Z,64.95
2018-03-19T03:57:22.332Z,64.95
2018-03-19T03:58:22.313Z,65.14
2018-03-19T03:59:22.292Z,65.14
2018-03-19T04:00:22.273Z,64.95
2018-03-19T04:01:22.254Z,65.05
2018-03-19T04:02:22.234Z,64.86
2018-03-19T04:03:22.214Z,65.05
2018-03-19T04:04:22.195Z,64.67
2018-03-19T04:05:22.174Z,64.48
2018-03-19T04:06:22.155Z,64.67
2018-03-19T04:07:22.138Z,64.67
2018-03-19T04:08:22.114Z,65.52
2018-03-19T04:09:22.095Z,66.09
2018-03-19T04:10:22.077Z,65.90
2018-03-19T04:11:22.056Z,66.28
2018-03-19T04:12:22.050Z,65.80
2018-03-19T04:13:22.051Z,66.28
2018-03-19T04:14:22.019Z,65.71
2018-03-19T04:15:21.977Z,65.71
2018-03-19T04:16:21.982Z,65.71
2018-03-19T04:17:21.943Z,65.71
2018-03-19T04:18:21.918Z,66.09
2018-03-19T04:19:21.910Z,65.71
2018-03-19T04:20:21.879Z,66.28
2018-03-19T04:21:21.859Z,66.56
2018-03-19T04:22:21.839Z,66.47
2018-03-19T04:23:21.818Z,66.37
2018-03-19T04:24:21.799Z,65.71
2018-03-19T04:25:21.779Z,65.05
2018-03-19T04:26:21.782Z,65.99
2018-03-19T04:27:21.741Z,64.76
2018-03-19T04:28:21.757Z,65.33
2018-03-19T04:29:21.707Z,65.42
2018-03-19T04:30:21.729Z,65.61
2018-03-19T04:31:21.676Z,65.33
2018-03-19T04:32:21.640Z,65.33
2018-03-19T04:33:21.621Z,65.52
2018-03-19T04:34:21.622Z,64.76
2018-03-19T04:35:21.648Z,65.42
2018-03-19T04:36:21.587Z,65.71
2018-03-19T04:37:21.541Z,65.90
2018-03-19T04:38:21.547Z,65.42
2018-03-19T04:39:21.551Z,65.61
2018-03-19T04:40:21.481Z,65.80
2018-03-19T04:41:21.462Z,65.52
2018-03-19T04:42:21.508Z,66.28
2018-03-19T04:43:21.422Z,66.56
2018-03-19T04:44:21.402Z,66.47
2018-03-19T04:45:21.382Z,66.28
2018-03-19T04:46:21.363Z,65.90
2018-03-19T04:47:21.342Z,65.42
2018-03-19T04:48:21.322Z,65.99
2018-03-19T04:49:21.304Z,65.52
2018-03-19T04:50:21.283Z,65.61
2018-03-19T04:51:21.263Z,65.90
2018-03-19T04:52:21.243Z,65.23
2018-03-19T04:53:21.238Z,65.71
2018-03-19T04:54:21.209Z,66.28
2018-03-19T04:55:21.212Z,65.42
2018-03-19T04:56:21.173Z,65.05
2018-03-19T04:57:21.193Z,65.42
2018-03-19T04:58:21.138Z,66.37
2018-03-19T04:59:21.107Z,66.65
2018-03-19T05:00:21.126Z,66.94
2018-03-19T05:01:21.070Z,67.13
2018-03-19T05:02:21.043Z,66.18
2018-03-19T05:03:21.062Z,66.65
2018-03-19T05:04:21.003Z,66.84
2018-03-19T05:05:20.984Z,66.94
2018-03-19T05:06:20.983Z,66.28
2018-03-19T05:07:20.943Z,65.80
2018-03-19T05:08:20.950Z,65.71
2018-03-19T05:09:20.954Z,65.71
2018-03-19T05:10:20.921Z,65.61
2018-03-19T05:11:20.875Z,65.52
2018-03-19T05:12:20.863Z,65.23
2018-03-19T05:13:20.833Z,65.42
2018-03-19T05:14:20.841Z,64.76
2018-03-19T05:15:20.788Z,65.14
2018-03-19T05:16:20.764Z,65.33
2018-03-19T05:17:20.761Z,65.33
2018-03-19T05:18:20.724Z,65.05
2018-03-19T05:19:20.704Z,65.52
2018-03-19T05:20:20.684Z,64.95
2018-03-19T05:21:20.664Z,65.52
2018-03-19T05:22:20.644Z,65.99
2018-03-19T05:23:20.638Z,66.37
2018-03-19T05:24:20.615Z,66.09
2018-03-19T05:25:20.583Z,65.80
2018-03-19T05:26:20.563Z,66.47
2018-03-19T05:27:20.543Z,65.71
2018-03-19T05:28:20.523Z,66.37
2018-03-19T05:29:20.504Z,67.22
2018-03-19T05:30:20.486Z,67.22
2018-03-19T05:31:20.465Z,66.75
2018-03-19T05:32:20.443Z,66.56
2018-03-19T05:33:20.424Z,66.18
2018-03-19T05:34:20.420Z,65.61
2018-03-19T05:35:20.384Z,66.18
2018-03-19T05:36:20.404Z,66.65
2018-03-19T05:37:20.355Z,66.47
2018-03-19T05:38:20.325Z,66.47
2018-03-19T05:39:20.339Z,66.56
2018-03-19T05:40:20.285Z,66.56
2018-03-19T05:41:20.270Z,66.56
2018-03-19T05:42:20.268Z,66.84
2018-03-19T05:43:20.225Z,67.13
2018-03-19T05:45:20.186Z,66.56
2018-03-19T05:46:20.170Z,65.99
2018-03-19T05:47:20.144Z,65.71
2018-03-19T05:48:20.125Z,66.75
2018-03-19T05:49:20.105Z,66.09
2018-03-19T05:50:20.086Z,65.90
2018-03-19T05:51:20.074Z,66.47
2018-03-19T05:52:20.046Z,66.65
2018-03-19T05:53:20.069Z,67.13
2018-03-19T05:54:20.007Z,66.84
2018-03-19T05:55:20.196Z,66.84
2018-03-19T05:56:19.967Z,66.84
2018-03-19T05:57:19.947Z,67.03
2018-03-19T05:58:19.928Z,67.69
2018-03-19T05:59:19.908Z,67.79
2018-03-19T06:00:20.092Z,67.03
2018-03-19T06:01:19.868Z,66.84
2018-03-19T06:02:19.850Z,67.13
2018-03-19T06:03:19.906Z,66.84
2018-03-19T06:04:19.810Z,67.03
2018-03-19T06:05:19.792Z,66.56
2018-03-19T06:06:19.976Z,66.37
2018-03-19T06:07:19.752Z,66.28
2018-03-19T06:08:19.732Z,66.18
2018-03-19T06:09:19.915Z,66.65
2018-03-19T06:10:19.695Z,65.71
2018-03-19T06:11:19.672Z,66.65
2018-03-19T06:12:19.668Z,66.37
2018-03-19T06:13:19.632Z,66.56
2018-03-19T06:14:19.615Z,66.56
2018-03-19T06:15:19.596Z,66.18
2018-03-19T06:16:19.575Z,66.37
2018-03-19T06:17:19.557Z,66.75
2018-03-19T06:18:19.538Z,67.13
2018-03-19T06:19:19.514Z,66.47
2018-03-19T06:20:19.497Z,66.56
2018-03-19T06:21:19.475Z,66.84
2018-03-19T06:22:19.455Z,66.75
2018-03-19T06:23:19.435Z,66.56
2018-03-19T06:24:19.415Z,66.94
2018-03-19T06:25:19.396Z,66.84
2018-03-19T06:26:19.429Z,66.56
2018-03-19T06:27:19.356Z,66.18
2018-03-19T06:28:19.336Z,66.56
2018-03-19T06:29:19.521Z,66.56
2018-03-19T06:30:19.302Z,66.65
2018-03-19T06:31:19.278Z,66.37
2018-03-19T06:32:19.342Z,66.56
2018-03-19T06:33:19.241Z,66.28
2018-03-19T06:34:19.221Z,66.28
2018-03-19T06:36:19.181Z,66.84
2018-03-19T06:37:19.161Z,67.13
2018-03-19T06:39:19.121Z,67.03
2018-03-19T06:40:19.102Z,66.56
2018-03-19T06:41:19.135Z,66.09
2018-03-19T06:42:19.066Z,66.18
2018-03-19T06:43:19.044Z,66.75
2018-03-19T06:44:19.068Z,66.56
2018-03-19T06:45:19.010Z,65.80
2018-03-19T06:46:18.989Z,65.42
2018-03-19T06:47:18.967Z,66.09
2018-03-19T06:48:18.946Z,66.56
2018-03-19T06:49:18.929Z,67.13
2018-03-19T06:50:18.908Z,67.13
2018-03-19T06:51:18.888Z,67.88
2018-03-19T06:52:18.869Z,67.79
2018-03-19T06:53:18.875Z,67.97
2018-03-19T06:54:18.832Z,67.88
2018-03-19T06:55:18.810Z,67.32
2018-03-19T06:56:18.791Z,67.13
2018-03-19T06:57:18.799Z,67.03
2018-03-19T06:58:18.852Z,66.84
2018-03-19T06:59:18.734Z,66.84
2018-03-19T07:00:18.715Z,66.65
2018-03-19T07:01:18.695Z,65.99
2018-03-19T07:02:18.679Z,65.52
2018-03-19T07:03:18.656Z,65.99
2018-03-19T07:04:18.857Z,66.09
2018-03-19T07:05:18.621Z,66.18
2018-03-19T07:06:18.633Z,66.56
2018-03-19T07:07:18.622Z,66.84
2018-03-19T07:08:18.560Z,67.22
2018-03-19T07:09:18.543Z,67.32
2018-03-19T07:10:18.728Z,66.56
2018-03-19T07:11:18.501Z,66.28
2018-03-19T07:12:18.482Z,66.28
2018-03-19T07:13:18.463Z,66.84
2018-03-19T07:14:18.515Z,67.79
2018-03-19T07:15:18.425Z,67.60
2018-03-19T07:16:18.405Z,67.79
2018-03-19T07:17:18.524Z,67.03
2018-03-19T07:18:18.369Z,66.75
2018-03-19T07:19:18.347Z,66.84
2018-03-19T07:21:18.310Z,66.18
2018-03-19T07:22:18.290Z,66.47
2018-03-19T07:23:18.324Z,66.18
2018-03-19T07:24:18.251Z,66.28
2018-03-19T07:25:18.232Z,66.47
2018-03-19T07:26:18.229Z,65.52
2018-03-19T07:27:18.193Z,65.80
2018-03-19T07:28:18.174Z,66.75
2018-03-19T07:29:18.155Z,67.22
2018-03-19T07:30:18.138Z,66.37
2018-03-19T07:31:18.117Z,66.75
2018-03-19T07:32:18.097Z,66.97
2018-03-19T07:33:18.083Z,67.22
2018-03-19T07:34:18.060Z,66.09
2018-03-19T07:35:18.040Z,65.99
2018-03-19T07:36:18.022Z,65.99
2018-03-19T07:37:18.001Z,66.47
2018-03-19T07:38:17.986Z,66.18
2018-03-19T07:39:17.963Z,66.37
2018-03-19T07:40:17.944Z,66.28
2018-03-19T07:41:17.925Z,66.47
2018-03-19T07:42:17.906Z,66.94
2018-03-19T07:43:17.886Z,67.13
2018-03-19T07:44:17.867Z,67.22
2018-03-19T07:45:17.848Z,66.65
2018-03-19T07:46:17.920Z,66.50
2018-03-19T07:47:17.809Z,65.46
2018-03-19T07:48:17.791Z,65.36
2018-03-19T07:49:17.772Z,66.28
2018-03-19T07:50:17.753Z,66.37
2018-03-19T07:51:17.733Z,66.47
2018-03-19T07:52:17.934Z,66.65
2018-03-19T07:53:17.697Z,66.28
2018-03-19T07:54:17.679Z,65.80
2018-03-19T07:55:17.700Z,65.52
2018-03-19T07:56:17.638Z,65.61
2018-03-19T07:57:17.673Z,65.99
2018-03-19T07:58:17.803Z,65.61
2018-03-19T07:59:17.580Z,65.52
2018-03-19T08:00:17.562Z,66.47
2018-03-19T08:01:17.581Z,66.84
2018-03-19T08:02:17.523Z,67.35
2018-03-19T08:03:17.513Z,66.97
2018-03-19T08:04:17.484Z,66.59
2018-03-19T08:05:17.465Z,66.41
2018-03-19T08:06:17.446Z,66.03
2018-03-19T08:07:17.426Z,66.03
2018-03-19T08:08:17.413Z,66.41
2018-03-19T08:09:17.390Z,66.88
2018-03-19T08:10:17.370Z,67.25
2018-03-19T08:11:17.351Z,67.54
2018-03-19T08:12:17.348Z,67.16
2018-03-19T08:13:17.318Z,67.16
2018-03-19T08:14:17.297Z,66.97
2018-03-19T08:15:17.276Z,66.97
2018-03-19T08:16:17.258Z,66.97
2018-03-19T08:17:17.243Z,66.22
2018-03-19T08:18:17.223Z,67.35
2018-03-19T08:19:17.203Z,66.97
2018-03-19T08:20:17.184Z,65.74
2018-03-19T08:21:17.166Z,65.65
2018-03-19T08:22:17.151Z,65.74
2018-03-19T08:23:17.129Z,65.93
2018-03-19T08:24:17.111Z,65.46
2018-03-19T08:25:17.097Z,66.03
2018-03-19T08:26:17.076Z,65.36
2018-03-19T08:27:17.060Z,65.55
2018-03-19T08:28:17.038Z,65.74
2018-03-19T08:29:17.108Z,65.74
2018-03-19T08:30:17.006Z,65.93
2018-03-19T08:31:16.983Z,65.93
2018-03-19T08:33:16.950Z,65.08
2018-03-19T08:34:16.931Z,64.89
2018-03-19T08:35:17.115Z,64.70
2018-03-19T08:36:16.897Z,64.89
2018-03-19T08:37:16.878Z,64.89
2018-03-19T08:38:16.898Z,64.89
2018-03-19T08:39:16.841Z,64.98
2018-03-19T08:40:16.824Z,65.08
2018-03-19T08:41:16.814Z,65.08
2018-03-19T08:42:16.793Z,64.83
2018-03-19T08:43:16.772Z,64.61
2018-03-19T08:44:16.755Z,64.70
2018-03-19T08:45:16.737Z,64.70
2018-03-19T08:46:16.720Z,63.95
2018-03-19T08:47:16.702Z,63.95
2018-03-19T08:48:16.688Z,64.70
2018-03-19T08:49:16.667Z,64.70
2018-03-19T08:50:16.650Z,65.27
2018-03-19T08:51:16.632Z,64.89
2018-03-19T08:52:16.631Z,64.51
2018-03-19T08:53:16.598Z,65.21
2018-03-19T08:54:16.586Z,64.92
2018-03-19T08:55:16.765Z,64.92
2018-03-19T08:56:16.545Z,64.45
2018-03-19T08:57:16.529Z,64.54
2018-03-19T08:58:16.587Z,65.02
2018-03-19T08:59:16.496Z,65.02
2018-03-19T09:00:16.477Z,64.73
2018-03-19T09:01:16.554Z,63.79
2018-03-19T09:02:16.445Z,63.98
2018-03-19T09:03:16.429Z,64.83
2018-03-19T09:04:16.512Z,64.73
2018-03-19T09:05:16.392Z,64.36
2018-03-19T09:06:16.376Z,64.36
2018-03-19T09:07:16.374Z,63.98
2018-03-19T09:08:16.343Z,63.13
2018-03-19T09:09:16.327Z,63.42
2018-03-19T09:10:16.309Z,63.51
2018-03-19T09:11:16.292Z,63.98
2018-03-19T09:12:16.276Z,64.83
2018-03-19T09:13:16.347Z,63.79
2018-03-19T09:14:16.245Z,63.98
2018-03-19T09:15:16.230Z,64.73
2018-03-19T09:16:16.268Z,64.36
2018-03-19T09:17:16.199Z,64.45
2018-03-19T09:18:16.186Z,63.89
2018-03-19T09:19:16.208Z,63.23
2018-03-19T09:20:16.149Z,63.60
2018-03-19T09:21:16.130Z,63.89
2018-03-19T09:22:16.158Z,63.60
2018-03-19T09:23:16.096Z,63.13
2018-03-19T09:24:16.083Z,63.32
2018-03-19T09:25:16.095Z,64.36
2018-03-19T09:26:16.049Z,64.64
2018-03-19T09:27:16.033Z,65.02
2018-03-19T09:28:16.017Z,64.54
2018-03-19T09:29:16.002Z,64.17
2018-03-19T09:30:15.993Z,64.07
2018-03-19T09:31:15.993Z,65.11
2018-03-19T09:32:15.953Z,64.92
2018-03-19T09:33:15.938Z,65.02
2018-03-19T09:34:15.922Z,64.54
2018-03-19T09:35:15.936Z,63.70
2018-03-19T09:36:15.975Z,64.17
2018-03-19T09:37:15.875Z,64.36
2018-03-19T09:38:15.859Z,63.98
2018-03-19T09:39:16.046Z,64.26
2018-03-19T09:40:15.833Z,64.36
2018-03-19T09:41:15.818Z,64.07
2018-03-19T09:42:16.000Z,64.29
2018-03-19T09:43:15.782Z,64.11
2018-03-19T09:44:15.769Z,64.11
2018-03-19T09:45:15.792Z,64.39
2018-03-19T09:46:15.736Z,63.92
2018-03-19T09:47:15.719Z,64.39
2018-03-19T09:48:15.714Z,64.77
2018-03-19T09:49:15.689Z,63.45
2018-03-19T09:50:15.675Z,63.35
2018-03-19T09:51:15.663Z,63.45
2018-03-19T09:52:15.644Z,63.92
2018-03-19T09:53:15.630Z,64.01
2018-03-19T09:54:15.614Z,63.92
2018-03-19T09:55:15.599Z,64.01
2018-03-19T09:56:15.828Z,62.50
2018-03-19T09:57:15.570Z,61.83
2018-03-19T09:58:15.558Z,61.83
2018-03-19T09:59:15.627Z,61.46
2018-03-19T10:00:15.527Z,62.50
2018-03-19T10:01:15.515Z,61.74
2018-03-19T10:02:15.553Z,62.02
2018-03-19T10:03:15.537Z,60.89
2018-03-19T10:04:15.468Z,61.65
2018-03-19T10:05:15.657Z,62.59
2018-03-19T10:06:15.440Z,62.88
2018-03-19T10:07:15.428Z,60.89
2018-03-19T10:08:15.412Z,60.70
2018-03-19T10:09:15.396Z,61.27
2018-03-19T10:10:15.419Z,62.50
2018-03-19T10:11:15.367Z,63.82
2018-03-19T10:12:15.354Z,63.45
2018-03-19T10:13:15.540Z,62.78
2018-03-19T10:14:15.322Z,62.21
2018-03-19T10:15:15.307Z,62.59
2018-03-19T10:16:15.386Z,63.16
2018-03-19T10:17:15.279Z,62.31
2018-03-19T10:18:15.264Z,62.12
2018-03-19T10:19:15.249Z,61.83
2018-03-19T10:20:15.235Z,61.93
2018-03-19T10:21:15.220Z,60.61
2018-03-19T10:22:15.206Z,61.08
2018-03-19T10:23:15.191Z,60.89
2018-03-19T10:24:15.177Z,61.36
2018-03-19T10:25:15.166Z,61.74
2018-03-19T10:26:15.149Z,61.36
2018-03-19T10:27:15.336Z,60.52
2018-03-19T10:28:15.118Z,60.33
2018-03-19T10:29:15.105Z,61.74
2018-03-19T10:30:15.176Z,61.68
2018-03-19T10:31:15.082Z,61.68
2018-03-19T10:32:15.062Z,60.99
2018-03-19T10:33:15.271Z,60.64
2018-03-19T10:34:15.047Z,60.23
2018-03-19T10:35:15.020Z,60.64
2018-03-19T10:36:15.005Z,61.21
2018-03-19T10:37:14.990Z,60.64
2018-03-19T10:38:14.976Z,60.64
2018-03-19T10:39:14.961Z,61.30
2018-03-19T10:40:14.948Z,62.15
2018-03-19T10:41:14.934Z,62.72
2018-03-19T10:42:14.921Z,61.68
2018-03-19T10:43:14.906Z,61.77
2018-03-19T10:44:14.893Z,61.99
2018-03-19T10:45:14.880Z,60.29
2018-03-19T10:46:14.868Z,59.16
2018-03-19T10:47:14.942Z,57.90
2018-03-19T10:48:14.842Z,57.99
2018-03-19T10:49:14.829Z,59.60
2018-03-19T10:50:15.028Z,60.45
2018-03-19T10:51:14.803Z,60.55
2018-03-19T10:52:14.788Z,60.64
2018-03-19T10:53:14.812Z,59.50
2018-03-19T10:54:14.761Z,59.12
2018-03-19T10:55:14.749Z,59.98
2018-03-19T10:56:14.737Z,60.55
2018-03-19T10:57:14.722Z,59.79
2018-03-19T10:58:14.712Z,59.22
2018-03-19T10:59:14.696Z,59.12
2018-03-19T11:00:14.683Z,59.60
2018-03-19T11:01:14.734Z,59.79
2018-03-19T11:02:14.666Z,60.36
2018-03-19T11:03:14.644Z,61.02
2018-03-19T11:04:14.632Z,61.61
2018-03-19T11:05:14.619Z,60.58
2018-03-19T11:06:14.607Z,59.44
2018-03-19T11:07:14.797Z,59.16
2018-03-19T11:08:14.590Z,58.81
2018-03-19T11:09:14.574Z,58.71
2018-03-19T11:10:14.615Z,58.62
2018-03-19T11:11:14.547Z,57.76
2018-03-19T11:12:14.634Z,57.29
2018-03-19T11:13:14.527Z,54.26
2018-03-19T11:14:14.515Z,55.11
2018-03-19T11:15:14.506Z,56.34
2018-03-19T11:16:14.493Z,55.87
2018-03-19T11:17:14.685Z,55.30
2018-03-19T11:18:14.472Z,54.52
2018-03-19T11:19:14.459Z,55.18
2018-03-19T11:20:14.658Z,56.32
2018-03-19T11:21:14.438Z,57.35
2018-03-19T11:22:14.425Z,58.02
2018-03-19T11:23:14.617Z,58.49
2018-03-19T11:24:14.401Z,57.07
2018-03-19T11:25:14.390Z,57.26
2018-03-19T11:26:14.395Z,56.41
2018-03-19T11:27:14.366Z,54.99
2018-03-19T11:28:14.356Z,55.75
2018-03-19T11:29:14.344Z,56.22
2018-03-19T11:30:14.334Z,55.46
2018-03-19T11:31:14.320Z,56.60
2018-03-19T11:32:14.309Z,56.79
2018-03-19T11:33:14.297Z,57.64
2018-03-19T11:34:14.393Z,57.57
2018-03-19T11:35:14.275Z,55.96
2018-03-19T11:36:14.267Z,55.87
2018-03-19T11:38:14.245Z,55.99
2018-03-19T11:39:14.233Z,53.91
2018-03-19T11:40:14.268Z,52.87
2018-03-19T11:41:14.218Z,53.34
2018-03-19T11:42:14.210Z,54.69
2018-03-19T11:43:14.197Z,54.22
2018-03-19T11:44:14.190Z,52.61
2018-03-19T11:45:14.186Z,51.95
2018-03-19T11:46:14.178Z,52.35
2018-03-19T11:47:14.196Z,50.45
2018-03-19T11:48:14.222Z,51.97
2018-03-19T11:49:14.155Z,50.83
2018-03-19T11:50:14.151Z,49.79
2018-03-19T11:51:14.194Z,49.88
2018-03-19T11:52:14.138Z,49.19
2018-03-19T11:53:14.129Z,49.29
2018-03-19T11:54:14.159Z,50.24
2018-03-19T11:55:14.115Z,50.90
2018-03-19T11:56:14.113Z,50.34
2018-03-19T11:57:14.103Z,49.86
2018-03-19T11:58:14.096Z,49.38
2018-03-19T11:59:14.090Z,49.86
2018-03-19T12:00:14.083Z,49.22
2018-03-19T12:01:14.082Z,50.17
2018-03-19T12:02:14.167Z,51.50
2018-03-19T12:03:14.063Z,50.29
2018-03-19T12:04:14.057Z,49.82
2018-03-19T12:06:14.048Z,49.63
2018-03-19T12:07:14.038Z,49.22
2018-03-19T12:08:14.081Z,49.34
2018-03-19T12:09:14.025Z,48.77
2018-03-19T12:10:14.020Z,48.49
2018-03-19T12:11:14.012Z,49.72
2018-03-19T12:12:14.014Z,48.96
2018-03-19T12:13:14.000Z,49.24
2018-03-19T12:14:13.995Z,48.58
2018-03-19T12:15:14.191Z,48.41
2018-03-19T12:16:13.981Z,48.32
2018-03-19T12:17:13.976Z,49.10
2018-03-19T12:18:14.046Z,47.49
2018-03-19T12:19:13.967Z,47.58
2018-03-19T12:20:13.959Z,47.11
2018-03-19T12:21:14.024Z,46.06
2018-03-19T12:22:13.947Z,46.23
2018-03-19T12:23:13.940Z,46.99
2018-03-19T12:24:14.142Z,46.42
2018-03-19T12:25:13.928Z,45.85
2018-03-19T12:26:13.922Z,45.83
2018-03-19T12:27:13.949Z,46.49
2018-03-19T12:28:13.908Z,47.53
2018-03-19T12:29:13.902Z,48.22
2018-03-19T12:30:13.896Z,48.41
2018-03-19T12:31:13.889Z,46.80
2018-03-19T12:32:14.092Z,45.19
2018-03-19T12:33:13.876Z,44.53
2018-03-19T12:34:13.869Z,44.40
2018-03-19T12:36:13.856Z,47.25
2018-03-19T12:37:13.850Z,46.11
2018-03-19T12:38:13.843Z,45.73
2018-03-19T12:39:13.832Z,47.34
2018-03-19T12:40:13.824Z,46.69
2018-03-19T12:41:13.820Z,46.23
2018-03-19T12:42:13.811Z,45.36
2018-03-19T12:43:13.801Z,45.17
2018-03-19T12:44:13.794Z,45.26
2018-03-19T12:45:13.788Z,46.30
2018-03-19T12:46:13.874Z,46.42
2018-03-19T12:47:13.770Z,46.14
2018-03-19T12:48:13.763Z,46.35
2018-03-19T12:49:13.757Z,44.73
2018-03-19T12:50:13.748Z,44.07
2018-03-19T12:51:13.739Z,43.02
2018-03-19T12:52:13.755Z,43.31
2018-03-19T12:53:13.725Z,43.88
2018-03-19T12:54:13.721Z,44.45
2018-03-19T12:55:13.708Z,42.47
2018-03-19T12:56:13.702Z,41.62
2018-03-19T12:57:13.695Z,41.79
2018-03-19T12:58:13.687Z,41.50
2018-03-19T12:59:13.678Z,41.77
2018-03-19T13:00:13.670Z,43.36